createdAt,value
2016-11-24T00:00:21.097Z,33.33
2016-11-24T00:01:21.084Z,33.33
2016-11-24T00:02:21.313Z,33.23
2016-11-24T00:03:21.057Z,33.33
2016-11-24T00:04:21.045Z,33.33
2016-11-24T00:05:21.026Z,33.23
2016-11-24T00:06:21.012Z,33.52
2016-11-24T00:07:20.998Z,32.1
2016-11-24T00:08:20.990Z,30.4
2016-11-24T00:09:20.978Z,29.35
2016-11-24T00:10:20.961Z,28.69
2016-11-24T00:11:20.943Z,27.75
2016-11-24T00:12:20.928Z,26.7
2016-11-24T00:13:20.916Z,26.51
2016-11-24T00:14:20.901Z,26.14
2016-11-24T00:15:20.891Z,26.32
2016-11-24T00:16:20.873Z,25.95
2016-11-24T00:17:20.858Z,25.76
2016-11-24T00:18:20.846Z,25.47
2016-11-24T00:19:20.836Z,25.66
2016-11-24T00:20:20.820Z,25.66
2016-11-24T00:21:20.827Z,25.66
2016-11-24T00:22:20.789Z,25.47
2016-11-24T00:23:20.776Z,25
2016-11-24T00:24:20.762Z,25.66
2016-11-24T00:25:20.752Z,25.95
2016-11-24T00:26:20.734Z,26.23
2016-11-24T00:27:20.719Z,27.27
2016-11-24T00:28:20.705Z,27.37
2016-11-24T00:29:20.692Z,27.84
2016-11-24T00:30:20.678Z,28.41
2016-11-24T00:31:20.663Z,28.78
2016-11-24T00:32:20.652Z,28.5
2016-11-24T00:33:20.637Z,28.31
2016-11-24T00:34:20.622Z,28.22
2016-11-24T00:35:20.609Z,28.13
2016-11-24T00:36:20.595Z,28.69
2016-11-24T00:37:20.582Z,28.78
2016-11-24T00:38:20.566Z,28.5
2016-11-24T00:39:20.553Z,28.13
2016-11-24T00:40:20.541Z,27.56
2016-11-24T00:41:20.526Z,26.98
2016-11-24T00:42:20.512Z,26.79
2016-11-24T00:43:20.498Z,25.76
2016-11-24T00:44:20.482Z,25.95
2016-11-24T00:45:20.471Z,25.28
2016-11-24T00:46:20.453Z,24.43
2016-11-24T00:47:20.449Z,24.33
2016-11-24T00:48:20.428Z,23.01
2016-11-24T00:49:20.416Z,22.16
2016-11-24T00:50:20.401Z,22.16
2016-11-24T00:51:20.389Z,22.06
2016-11-24T00:52:20.372Z,21.88
2016-11-24T00:53:20.360Z,21.5
2016-11-24T00:54:20.343Z,21.11
2016-11-24T00:55:20.331Z,20.54
2016-11-24T00:56:20.323Z,20.08
2016-11-24T00:57:20.303Z,20.07
2016-11-24T00:58:20.288Z,20.56
2016-11-24T00:59:20.276Z,20.37
2016-11-24T01:00:20.262Z,20.65
2016-11-24T01:01:20.246Z,20.65
2016-11-24T01:02:20.284Z,21.12
2016-11-24T01:03:20.220Z,21.22
2016-11-24T01:04:20.205Z,21.79
2016-11-24T01:05:20.191Z,21.69
2016-11-24T01:06:20.200Z,22.17
2016-11-24T01:07:20.165Z,22.17
2016-11-24T01:08:20.150Z,22.74
2016-11-24T01:09:20.137Z,22.74
2016-11-24T01:10:20.121Z,22.74
2016-11-24T01:11:20.110Z,23.02
2016-11-24T01:12:20.096Z,23.11
2016-11-24T01:13:20.082Z,23.49
2016-11-24T01:14:20.071Z,23.68
2016-11-24T01:15:20.053Z,23.78
2016-11-24T01:16:20.040Z,23.87
2016-11-24T01:17:20.026Z,24.44
2016-11-24T01:18:20.013Z,24.82
2016-11-24T01:19:20.001Z,25.48
2016-11-24T01:20:19.984Z,25.48
2016-11-24T01:21:19.972Z,25.96
2016-11-24T01:22:19.957Z,25.86
2016-11-24T01:23:19.947Z,25.96
2016-11-24T01:24:19.931Z,25.58
2016-11-24T01:25:19.919Z,25.67
2016-11-24T01:26:19.907Z,25.77
2016-11-24T01:27:19.892Z,25.67
2016-11-24T01:28:19.879Z,26.24
2016-11-24T01:29:19.864Z,27.28
2016-11-24T01:30:19.849Z,27
2016-11-24T01:31:19.840Z,27.09
2016-11-24T01:32:19.825Z,26.9
2016-11-24T01:33:19.813Z,26.9
2016-11-24T01:34:19.851Z,26.62
2016-11-24T01:35:19.783Z,26.81
2016-11-24T01:36:19.770Z,26.15
2016-11-24T01:37:19.757Z,26.15
2016-11-24T01:38:19.743Z,26.62
2016-11-24T01:39:19.729Z,27
2016-11-24T01:40:19.714Z,27.09
2016-11-24T01:41:19.816Z,27.66
2016-11-24T01:42:19.688Z,27.76
2016-11-24T01:43:19.674Z,28.14
2016-11-24T01:44:19.659Z,28.7
2016-11-24T01:45:19.654Z,29.18
2016-11-24T01:46:19.633Z,29.46
2016-11-24T01:47:19.619Z,29.75
2016-11-24T01:48:19.611Z,30.22
2016-11-24T01:49:19.594Z,29.27
2016-11-24T01:50:19.582Z,28.89
2016-11-24T01:51:19.566Z,28.89
2016-11-24T01:52:19.553Z,28.33
2016-11-24T01:53:19.542Z,28.23
2016-11-24T01:54:19.528Z,27.85
2016-11-24T01:55:19.511Z,27.85
2016-11-24T01:56:19.812Z,28.14
2016-11-24T01:57:19.487Z,28.42
2016-11-24T01:58:19.471Z,27.95
2016-11-24T01:59:19.459Z,27.85
2016-11-24T02:00:19.446Z,27.66
2016-11-24T02:01:19.432Z,27.95
2016-11-24T02:02:19.418Z,28.33
2016-11-24T02:03:19.405Z,28.8
2016-11-24T02:04:19.456Z,28.99
2016-11-24T02:05:19.383Z,29.18
2016-11-24T02:06:19.364Z,29.84
2016-11-24T02:07:19.349Z,29.94
2016-11-24T02:08:19.335Z,29.65
2016-11-24T02:09:19.321Z,29.37
2016-11-24T02:10:19.307Z,29.46
2016-11-24T02:11:19.297Z,29.27
2016-11-24T02:12:19.284Z,29.08
2016-11-24T02:13:20.047Z,28.89
2016-11-24T02:14:19.287Z,29.46
2016-11-24T02:15:19.238Z,29.46
2016-11-24T02:16:19.229Z,29.75
2016-11-24T02:17:19.212Z,29.56
2016-11-24T02:18:19.198Z,28.89
2016-11-24T02:19:19.188Z,28.42
2016-11-24T02:20:19.171Z,28.99
2016-11-24T02:21:19.160Z,29.18
2016-11-24T02:22:19.148Z,29.27
2016-11-24T02:23:19.135Z,29.75
2016-11-24T02:24:19.119Z,29.75
2016-11-24T02:25:19.108Z,30.13
2016-11-24T02:26:19.093Z,31.26
2016-11-24T02:27:19.081Z,31.83
2016-11-24T02:28:19.062Z,32.02
2016-11-24T02:29:19.053Z,33.06
2016-11-24T02:30:19.036Z,33.44
2016-11-24T02:31:19.022Z,34.2
2016-11-24T02:32:19.010Z,34.48
2016-11-24T02:33:18.996Z,34.58
2016-11-24T02:34:18.986Z,34.3
2016-11-24T02:35:18.972Z,33.92
2016-11-24T02:36:18.954Z,33.35
2016-11-24T02:37:18.943Z,33.16
2016-11-24T02:38:18.930Z,32.97
2016-11-24T02:39:18.916Z,32.68
2016-11-24T02:40:18.902Z,32.87
2016-11-24T02:41:18.890Z,32.97
2016-11-24T02:42:18.877Z,33.63
2016-11-24T02:43:18.864Z,33.92
2016-11-24T02:44:18.847Z,34.01
2016-11-24T02:45:18.835Z,34.09
2016-11-24T02:46:18.821Z,34.58
2016-11-24T02:47:18.810Z,34.67
2016-11-24T02:48:18.795Z,34.38
2016-11-24T02:49:18.780Z,34.38
2016-11-24T02:50:18.767Z,34.84
2016-11-24T02:51:18.755Z,34.66
2016-11-24T02:52:18.739Z,34.66
2016-11-24T02:53:18.725Z,35.03
2016-11-24T02:54:18.714Z,34.28
2016-11-24T02:55:18.700Z,33.9
2016-11-24T02:56:18.688Z,33.81
2016-11-24T02:57:18.670Z,33.43
2016-11-24T02:58:18.661Z,32.95
2016-11-24T02:59:18.644Z,33.04
2016-11-24T03:00:18.632Z,32.48
2016-11-24T03:01:18.616Z,31.72
2016-11-24T03:02:18.605Z,31.06
2016-11-24T03:03:18.594Z,30.49
2016-11-24T03:04:18.578Z,29.73
2016-11-24T03:05:18.562Z,29.07
2016-11-24T03:06:18.548Z,29.07
2016-11-24T03:07:18.536Z,29.16
2016-11-24T03:08:18.523Z,28.97
2016-11-24T03:09:18.508Z,28.88
2016-11-24T03:10:18.493Z,28.97
2016-11-24T03:11:18.480Z,29.26
2016-11-24T03:12:18.466Z,28.97
2016-11-24T03:13:18.458Z,28.41
2016-11-24T03:14:18.439Z,28.13
2016-11-24T03:15:18.422Z,27.65
2016-11-24T03:16:18.411Z,26.89
2016-11-24T03:17:18.403Z,25.95
2016-11-24T03:18:18.385Z,25.66
2016-11-24T03:19:18.369Z,25.09
2016-11-24T03:20:18.362Z,24.43
2016-11-24T03:21:18.344Z,24.54
2016-11-24T03:22:18.329Z,24.54
2016-11-24T03:23:18.316Z,25.2
2016-11-24T03:24:18.302Z,25.39
2016-11-24T03:25:18.287Z,25.67
2016-11-24T03:26:18.587Z,25.77
2016-11-24T03:27:18.259Z,26.15
2016-11-24T03:28:18.244Z,26.24
2016-11-24T03:29:18.231Z,26.72
2016-11-24T03:30:18.215Z,27.66
2016-11-24T03:31:18.207Z,28.52
2016-11-24T03:32:18.193Z,28.89
2016-11-24T03:33:18.179Z,28.8
2016-11-24T03:34:18.168Z,28.89
2016-11-24T03:35:18.148Z,28.99
2016-11-24T03:36:18.136Z,28.52
2016-11-24T03:37:18.121Z,28.42
2016-11-24T03:38:18.115Z,28.52
2016-11-24T03:39:18.095Z,29.18
2016-11-24T03:40:18.086Z,29.08
2016-11-24T03:41:18.066Z,29.37
2016-11-24T03:42:18.058Z,30.22
2016-11-24T03:43:18.041Z,30.69
2016-11-24T03:44:18.025Z,31.36
2016-11-24T03:45:18.015Z,31.36
2016-11-24T03:46:17.997Z,30.22
2016-11-24T03:47:17.983Z,30.22
2016-11-24T03:48:17.970Z,30.21
2016-11-24T03:49:17.959Z,29.65
2016-11-24T03:50:17.945Z,29.18
2016-11-24T03:51:17.927Z,29.37
2016-11-24T03:52:17.917Z,28.99
2016-11-24T03:53:17.903Z,29.35
2016-11-24T03:54:17.889Z,29.37
2016-11-24T03:55:17.878Z,28.99
2016-11-24T03:56:17.861Z,28.13
2016-11-24T03:57:17.850Z,26.62
2016-11-24T03:58:17.838Z,25.66
2016-11-24T03:59:17.820Z,25.09
2016-11-24T04:00:17.806Z,25.01
2016-11-24T04:01:17.792Z,24.54
2016-11-24T04:02:17.776Z,24.63
2016-11-24T04:03:17.767Z,24.26
2016-11-24T04:04:17.751Z,24.05
2016-11-24T04:05:17.736Z,23.97
2016-11-24T04:06:17.724Z,24.26
2016-11-24T04:07:17.706Z,24.06
2016-11-24T04:08:17.696Z,23.49
2016-11-24T04:09:17.683Z,23.3
2016-11-24T04:10:17.668Z,22.92
2016-11-24T04:11:17.656Z,22.83
2016-11-24T04:12:17.641Z,22.07
2016-11-24T04:13:17.630Z,21.5
2016-11-24T04:14:17.615Z,21.97
2016-11-24T04:15:17.600Z,21.98
2016-11-24T04:16:17.584Z,21.88
2016-11-24T04:17:17.569Z,21.69
2016-11-24T04:18:17.557Z,22.17
2016-11-24T04:19:17.543Z,22.07
2016-11-24T04:20:17.531Z,21.98
2016-11-24T04:21:17.515Z,22.45
2016-11-24T04:22:17.502Z,22.74
2016-11-24T04:23:17.487Z,23.59
2016-11-24T04:24:17.484Z,23.59
2016-11-24T04:25:17.463Z,23.48
2016-11-24T04:26:17.449Z,23.58
2016-11-24T04:27:17.434Z,23.01
2016-11-24T04:28:17.420Z,22.82
2016-11-24T04:29:17.405Z,22.44
2016-11-24T04:30:17.390Z,21.78
2016-11-24T04:31:17.376Z,21.69
2016-11-24T04:32:17.365Z,21.5
2016-11-24T04:33:17.352Z,21.41
2016-11-24T04:34:17.338Z,20.94
2016-11-24T04:35:17.325Z,21.03
2016-11-24T04:36:17.310Z,21.41
2016-11-24T04:37:17.299Z,21.5
2016-11-24T04:38:17.280Z,21.5
2016-11-24T04:39:17.280Z,21.5
2016-11-24T04:40:17.254Z,21.6
2016-11-24T04:41:17.241Z,21.6
2016-11-24T04:42:17.225Z,21.88
2016-11-24T04:43:17.219Z,22.64
2016-11-24T04:44:17.203Z,22.92
2016-11-24T04:45:17.188Z,23.87
2016-11-24T04:46:17.170Z,24.26
2016-11-24T04:47:17.156Z,24.54
2016-11-24T04:48:17.147Z,25.2
2016-11-24T04:49:17.131Z,25.58
2016-11-24T04:50:17.118Z,26.24
2016-11-24T04:51:17.102Z,25.96
2016-11-24T04:52:17.091Z,26.9
2016-11-24T04:53:17.082Z,27.17
2016-11-24T04:54:17.067Z,27.84
2016-11-24T04:55:17.049Z,28.22
2016-11-24T04:56:17.037Z,28.69
2016-11-24T04:57:17.023Z,29.16
2016-11-24T04:58:17.010Z,29.35
2016-11-24T04:59:16.994Z,30.02
2016-11-24T05:00:16.980Z,30.58
2016-11-24T05:01:16.966Z,31.34
2016-11-24T05:02:16.953Z,31.72
2016-11-24T05:03:16.937Z,31.72
2016-11-24T05:04:16.926Z,31.82
2016-11-24T05:05:16.911Z,32.39
2016-11-24T05:06:16.894Z,32.57
2016-11-24T05:07:16.882Z,32.2
2016-11-24T05:08:16.868Z,32.1
2016-11-24T05:09:16.854Z,31.25
2016-11-24T05:10:16.841Z,30.4
2016-11-24T05:11:16.830Z,30.11
2016-11-24T05:12:16.810Z,29.07
2016-11-24T05:13:16.801Z,27.75
2016-11-24T05:14:16.785Z,26.51
2016-11-24T05:15:16.770Z,25.47
2016-11-24T05:16:16.758Z,25.19
2016-11-24T05:17:16.740Z,24.81
2016-11-24T05:18:16.729Z,25.28
2016-11-24T05:19:16.713Z,25.76
2016-11-24T05:20:16.702Z,25.95
2016-11-24T05:21:16.687Z,25.66
2016-11-24T05:22:16.672Z,25.28
2016-11-24T05:23:16.656Z,24.52
2016-11-24T05:24:16.642Z,24.33
2016-11-24T05:25:16.631Z,24.15
2016-11-24T05:26:16.616Z,24.33
2016-11-24T05:27:16.605Z,24.52
2016-11-24T05:28:16.586Z,24.24
2016-11-24T05:29:16.575Z,23.96
2016-11-24T05:30:16.558Z,23.58
2016-11-24T05:31:16.549Z,23.58
2016-11-24T05:32:16.532Z,23.29
2016-11-24T05:33:16.515Z,22.91
2016-11-24T05:34:16.520Z,22.72
2016-11-24T05:35:16.487Z,22.16
2016-11-24T05:36:16.472Z,22.44
2016-11-24T05:37:16.464Z,21.97
2016-11-24T05:38:16.445Z,22.06
2016-11-24T05:39:16.430Z,21.78
2016-11-24T05:40:16.417Z,21.88
2016-11-24T05:41:16.404Z,21.88
2016-11-24T05:42:16.393Z,21.59
2016-11-24T05:43:16.374Z,21.11
2016-11-24T05:44:16.361Z,19.98
2016-11-24T05:45:16.348Z,19.6
2016-11-24T05:46:16.333Z,19.22
2016-11-24T05:47:16.319Z,18.27
2016-11-24T05:48:16.305Z,17.99
2016-11-24T05:49:16.287Z,16.66
2016-11-24T05:51:16.262Z,15.34
2016-11-24T05:52:16.247Z,14.58
2016-11-24T05:53:16.231Z,13.92
2016-11-24T05:54:16.221Z,13.73
2016-11-24T05:55:16.207Z,13.26
2016-11-24T05:56:16.187Z,12.51
2016-11-24T05:57:16.175Z,12.32
2016-11-24T05:58:16.160Z,12.32
2016-11-24T05:59:16.151Z,12.22
2016-11-24T06:00:16.131Z,11.74
2016-11-24T06:01:16.119Z,11.65
2016-11-24T06:02:16.107Z,11.18
2016-11-24T06:03:16.090Z,10.99
2016-11-24T06:04:16.079Z,11.27
2016-11-24T06:05:16.062Z,11.27
2016-11-24T06:06:16.053Z,11.36
2016-11-24T06:07:16.036Z,11.18
2016-11-24T06:08:16.025Z,11.08
2016-11-24T06:09:16.009Z,10.99
2016-11-24T06:10:15.997Z,11.08
2016-11-24T06:11:15.984Z,10.99
2016-11-24T06:12:15.970Z,10.99
2016-11-24T06:13:15.956Z,10.9
2016-11-24T06:14:15.942Z,10.9
2016-11-24T06:15:15.926Z,11.18
2016-11-24T06:16:15.915Z,11.28
2016-11-24T06:17:15.900Z,11.18
2016-11-24T06:18:15.885Z,11.37
2016-11-24T06:19:15.871Z,10.8
2016-11-24T06:20:15.868Z,11.09
2016-11-24T06:21:15.847Z,11.28
2016-11-24T06:22:15.833Z,11.28
2016-11-24T06:23:15.819Z,11.28
2016-11-24T06:24:15.806Z,11.37
2016-11-24T06:25:15.792Z,11.37
2016-11-24T06:26:15.778Z,11.18
2016-11-24T06:27:15.764Z,10.9
2016-11-24T06:28:15.757Z,11.28
2016-11-24T06:29:15.738Z,11.18
2016-11-24T06:30:15.725Z,11.47
2016-11-24T06:31:15.711Z,10.61
2016-11-24T06:32:15.699Z,10.52
2016-11-24T06:33:15.704Z,10.05
2016-11-24T06:34:15.675Z,10.14
2016-11-24T06:35:15.660Z,9.86
2016-11-24T06:36:15.642Z,9.86
2016-11-24T06:37:15.634Z,9.76
2016-11-24T06:38:15.620Z,9.57
2016-11-24T06:39:15.605Z,9.57
2016-11-24T06:40:15.593Z,9.57
2016-11-24T06:41:15.579Z,9.57
2016-11-24T06:42:15.570Z,9.19
2016-11-24T06:43:15.555Z,9.48
2016-11-24T06:44:15.543Z,8.81
2016-11-24T06:45:15.528Z,9.1
2016-11-24T06:46:15.516Z,8.72
2016-11-24T06:47:15.499Z,9.1
2016-11-24T06:48:15.486Z,9.48
2016-11-24T06:49:15.471Z,9.67
2016-11-24T06:50:15.463Z,9.29
2016-11-24T06:51:15.447Z,9.1
2016-11-24T06:52:15.436Z,8.62
2016-11-24T06:53:15.424Z,8.62
2016-11-24T06:54:15.408Z,8.06
2016-11-24T06:55:15.394Z,8.15
2016-11-24T06:56:15.382Z,8.15
2016-11-24T06:57:15.369Z,8.62
2016-11-24T06:58:15.358Z,8.62
2016-11-24T06:59:15.341Z,8.44
2016-11-24T07:00:15.327Z,8.53
2016-11-24T07:01:15.321Z,9
2016-11-24T07:02:15.304Z,8.53
2016-11-24T07:03:15.292Z,8.72
2016-11-24T07:04:15.277Z,8.81
2016-11-24T07:05:15.292Z,8.91
2016-11-24T07:06:15.251Z,8.53
2016-11-24T07:07:15.239Z,8.34
2016-11-24T07:08:15.225Z,8.62
2016-11-24T07:09:15.209Z,8.62
2016-11-24T07:10:15.196Z,8.15
2016-11-24T07:11:15.188Z,8.06
2016-11-24T07:12:15.175Z,7.68
2016-11-24T07:13:15.159Z,7.78
2016-11-24T07:14:15.149Z,7.77
2016-11-24T07:15:15.132Z,7.68
2016-11-24T07:16:15.124Z,8.06
2016-11-24T07:17:15.106Z,8.06
2016-11-24T07:18:15.096Z,8.63
2016-11-24T07:19:15.088Z,8.53
2016-11-24T07:20:15.068Z,8.82
2016-11-24T07:21:15.059Z,9.48
2016-11-24T07:22:15.045Z,9.58
2016-11-24T07:23:15.028Z,9.58
2016-11-24T07:24:15.017Z,8.91
2016-11-24T07:25:15.003Z,8.25
2016-11-24T07:26:14.990Z,7.97
2016-11-24T07:27:14.977Z,8.06
2016-11-24T07:28:14.961Z,7.97
2016-11-24T07:29:14.971Z,8.06
2016-11-24T07:30:14.939Z,7.4
2016-11-24T07:31:14.930Z,6.92
2016-11-24T07:32:14.913Z,6.92
2016-11-24T07:33:14.901Z,7.01
2016-11-24T07:34:14.886Z,6.92
2016-11-24T07:35:14.873Z,6.63
2016-11-24T07:36:14.859Z,7.01
2016-11-24T07:37:14.850Z,7.3
2016-11-24T07:38:14.836Z,7.2
2016-11-24T07:39:14.822Z,7.59
2016-11-24T07:40:14.812Z,7.01
2016-11-24T07:41:14.799Z,7.11
2016-11-24T07:42:14.783Z,6.73
2016-11-24T07:43:14.771Z,6.73
2016-11-24T07:44:14.788Z,7.59
2016-11-24T07:45:14.745Z,8.15
2016-11-24T07:46:14.732Z,8.63
2016-11-24T07:47:14.719Z,8.15
2016-11-24T07:48:14.710Z,8.06
2016-11-24T07:49:14.699Z,7.78
2016-11-24T07:50:14.684Z,7.97
2016-11-24T07:51:14.668Z,8.82
2016-11-24T07:52:14.657Z,9.86
2016-11-24T07:53:14.644Z,9.58
2016-11-24T07:54:14.632Z,8.72
2016-11-24T07:55:14.628Z,8.06
2016-11-24T07:56:14.605Z,8.06
2016-11-24T07:57:14.594Z,8.15
2016-11-24T07:58:14.896Z,8.06
2016-11-24T07:59:14.567Z,8.63
2016-11-24T08:00:14.558Z,8.82
2016-11-24T08:01:14.545Z,9.01
2016-11-24T08:02:14.529Z,8.63
2016-11-24T08:03:14.522Z,8.72
2016-11-24T08:04:14.504Z,8.06
2016-11-24T08:05:14.490Z,8.25
2016-11-24T08:06:14.479Z,8.34
2016-11-24T08:07:14.465Z,8.15
2016-11-24T08:08:14.457Z,8.25
2016-11-24T08:09:14.440Z,8.63
2016-11-24T08:10:14.430Z,8.25
2016-11-24T08:11:14.414Z,7.78
2016-11-24T08:12:14.402Z,7.68
2016-11-24T08:13:14.389Z,7.87
2016-11-24T08:14:14.382Z,7.59
2016-11-24T08:15:14.363Z,9.01
2016-11-24T08:16:14.354Z,9.77
2016-11-24T08:17:14.339Z,11.19
2016-11-24T08:18:14.331Z,11.94
2016-11-24T08:19:14.316Z,11.85
2016-11-24T08:20:14.300Z,12.23
2016-11-24T08:21:14.290Z,12.33
2016-11-24T08:22:14.276Z,12.33
2016-11-24T08:23:14.264Z,11.47
2016-11-24T08:24:14.253Z,11.38
2016-11-24T08:25:14.239Z,11.66
2016-11-24T08:26:14.230Z,11.19
2016-11-24T08:27:14.219Z,11.47
2016-11-24T08:28:14.202Z,11.94
2016-11-24T08:29:14.187Z,12.42
2016-11-24T08:30:14.174Z,14.14
2016-11-24T08:31:14.165Z,14.61
2016-11-24T08:32:14.152Z,13.65
2016-11-24T08:33:14.139Z,14.22
2016-11-24T08:34:14.125Z,14.7
2016-11-24T08:35:14.116Z,14.51
2016-11-24T08:36:14.101Z,14.22
2016-11-24T08:37:14.087Z,13.56
2016-11-24T08:38:14.078Z,12.8
2016-11-24T08:39:14.064Z,12.33
2016-11-24T08:40:14.048Z,11.94
2016-11-24T08:41:14.035Z,11.57
2016-11-24T08:42:14.026Z,10.9
2016-11-24T08:43:14.017Z,12.24
2016-11-24T08:44:14.000Z,13.47
2016-11-24T08:45:13.995Z,13.76
2016-11-24T08:46:13.973Z,13.66
2016-11-24T08:47:13.963Z,14.04
2016-11-24T08:48:13.949Z,15.66
2016-11-24T08:49:13.941Z,16.89
2016-11-24T08:50:13.924Z,16.79
2016-11-24T08:51:13.914Z,17.74
2016-11-24T08:52:13.901Z,18.31
2016-11-24T08:53:13.892Z,17.27
2016-11-24T08:54:13.877Z,16.98
2016-11-24T08:55:13.867Z,16.89
2016-11-24T08:56:13.857Z,18.31
2016-11-24T08:57:13.840Z,19.83
2016-11-24T08:58:13.825Z,19.17
2016-11-24T08:59:13.815Z,18.88
2016-11-24T09:00:13.802Z,18.69
2016-11-24T09:01:13.793Z,17.93
2016-11-24T09:02:13.778Z,17.65
2016-11-24T09:03:13.767Z,17.74
2016-11-24T09:04:13.752Z,17.74
2016-11-24T09:05:13.738Z,18.02
2016-11-24T09:06:13.728Z,19.83
2016-11-24T09:07:13.714Z,19.83
2016-11-24T09:08:13.705Z,20.21
2016-11-24T09:09:13.691Z,20.97
2016-11-24T09:10:13.676Z,23.53
2016-11-24T09:11:13.673Z,24.1
2016-11-24T09:12:13.653Z,23.72
2016-11-24T09:13:13.647Z,22.39
2016-11-24T09:14:13.635Z,22.2
2016-11-24T09:15:13.617Z,21.63
2016-11-24T09:16:13.606Z,21.25
2016-11-24T09:17:13.645Z,23.24
2016-11-24T09:18:13.578Z,23.44
2016-11-24T09:19:13.569Z,21.44
2016-11-24T09:20:13.555Z,21.25
2016-11-24T09:21:13.543Z,20.78
2016-11-24T09:22:13.532Z,21.06
2016-11-24T09:23:13.524Z,24.19
2016-11-24T09:24:13.508Z,22.96
2016-11-24T09:25:13.496Z,22.2
2016-11-24T09:26:13.484Z,22.3
2016-11-24T09:27:13.469Z,23.44
2016-11-24T09:28:13.458Z,23.91
2016-11-24T09:29:13.444Z,24.19
2016-11-24T09:30:13.431Z,23.44
2016-11-24T09:31:13.421Z,24.29
2016-11-24T09:32:13.412Z,23.53
2016-11-24T09:33:13.396Z,24.38
2016-11-24T09:34:13.384Z,23.72
2016-11-24T09:35:13.372Z,24.95
2016-11-24T09:36:13.360Z,25.05
2016-11-24T09:37:13.351Z,24.01
2016-11-24T09:38:13.333Z,24.19
2016-11-24T09:39:13.326Z,25.05
2016-11-24T09:40:13.308Z,24.95
2016-11-24T09:41:13.298Z,24.29
2016-11-24T09:42:13.285Z,24.1
2016-11-24T09:43:13.275Z,25.24
2016-11-24T09:44:13.262Z,25.24
2016-11-24T09:45:13.248Z,25.14
2016-11-24T09:46:13.238Z,25.9
2016-11-24T09:47:13.229Z,25.81
2016-11-24T09:48:13.214Z,26.76
2016-11-24T09:49:13.231Z,26.85
2016-11-24T09:50:13.191Z,25.14
2016-11-24T09:51:13.174Z,23.15
2016-11-24T09:52:13.166Z,21.92
2016-11-24T09:53:13.151Z,20.97
2016-11-24T09:54:13.143Z,20.21
2016-11-24T09:55:13.128Z,19.54
2016-11-24T09:56:13.118Z,20.5
2016-11-24T09:57:13.133Z,21.06
2016-11-24T09:58:13.089Z,23.82
2016-11-24T09:59:13.078Z,24.01
2016-11-24T10:00:13.067Z,24.19
2016-11-24T10:01:13.056Z,25.52
2016-11-24T10:02:13.045Z,26.96
2016-11-24T10:03:13.030Z,27.7
2016-11-24T10:04:13.017Z,27.81
2016-11-24T10:05:13.007Z,28.75
2016-11-24T10:06:12.993Z,29.13
2016-11-24T10:07:12.982Z,29.71
2016-11-24T10:08:12.968Z,29.6
2016-11-24T10:09:12.956Z,33.13
2016-11-24T10:10:12.947Z,35.58
2016-11-24T10:11:12.936Z,32.17
2016-11-24T10:12:12.920Z,28.94
2016-11-24T10:13:12.913Z,30.08
2016-11-24T10:14:12.900Z,29.13
2016-11-24T10:15:12.888Z,27.89
2016-11-24T10:16:12.874Z,26.47
2016-11-24T10:17:12.866Z,25.52
2016-11-24T10:18:12.855Z,25.24
2016-11-24T10:19:12.840Z,24.95
2016-11-24T10:20:12.826Z,24.19
2016-11-24T10:21:12.812Z,22.67
2016-11-24T10:22:12.802Z,22.3
2016-11-24T10:23:12.789Z,21.54
2016-11-24T10:24:12.777Z,20.5
2016-11-24T10:25:12.765Z,20.02
2016-11-24T10:26:12.753Z,18.69
2016-11-24T10:27:12.741Z,19.54
2016-11-24T10:28:12.731Z,20.11
2016-11-24T10:29:12.722Z,19.64
2016-11-24T10:30:12.704Z,20.31
2016-11-24T10:31:12.693Z,20.02
2016-11-24T10:32:12.681Z,19.17
2016-11-24T10:33:12.673Z,19.26
2016-11-24T10:34:12.655Z,19.54
2016-11-24T10:35:12.653Z,20.97
2016-11-24T10:36:12.652Z,25.9
2016-11-24T10:37:12.621Z,27.14
2016-11-24T10:38:12.605Z,27.42
2016-11-24T10:39:12.599Z,27.51
2016-11-24T10:40:12.580Z,25.81
2016-11-24T10:41:12.573Z,25.81
2016-11-24T10:42:12.558Z,26.47
2016-11-24T10:43:12.543Z,25.43
2016-11-24T10:44:12.851Z,25.81
2016-11-24T10:45:12.518Z,24.38
2016-11-24T10:46:12.507Z,24.19
2016-11-24T10:47:12.498Z,25.14
2016-11-24T10:48:12.484Z,28.66
2016-11-24T10:49:12.477Z,27.8
2016-11-24T10:50:12.458Z,26.18
2016-11-24T10:51:12.452Z,24.95
2016-11-24T10:52:12.436Z,25.14
2016-11-24T10:53:12.423Z,25.05
2016-11-24T10:54:12.409Z,23.34
2016-11-24T10:55:12.400Z,24.67
2016-11-24T10:56:12.386Z,23.53
2016-11-24T10:57:12.377Z,21.63
2016-11-24T10:58:12.363Z,20.21
2016-11-24T10:59:12.352Z,19.54
2016-11-24T11:00:12.339Z,18.69
2016-11-24T11:01:12.328Z,17.08
2016-11-24T11:02:12.312Z,16.41
2016-11-24T11:03:12.306Z,17.65
2016-11-24T11:04:12.287Z,17.08
2016-11-24T11:05:12.277Z,17.08
2016-11-24T11:06:12.260Z,16.79
2016-11-24T11:07:12.252Z,16.41
2016-11-24T11:08:12.241Z,18.6
2016-11-24T11:09:12.226Z,19.35
2016-11-24T11:10:12.212Z,18.98
2016-11-24T11:11:12.205Z,16.79
2016-11-24T11:12:12.189Z,16.51
2016-11-24T11:13:12.186Z,15.37
2016-11-24T11:14:12.164Z,15.84
2016-11-24T11:15:12.152Z,16.32
2016-11-24T11:16:12.142Z,16.89
2016-11-24T11:17:12.128Z,17.27
2016-11-24T11:18:12.115Z,17.65
2016-11-24T11:19:12.102Z,16.6
2016-11-24T11:20:12.123Z,16.51
2016-11-24T11:21:12.077Z,16.79
2016-11-24T11:22:12.065Z,17.46
2016-11-24T11:23:12.055Z,18.31
2016-11-24T11:24:12.041Z,17.65
2016-11-24T11:25:12.027Z,16.79
2016-11-24T11:26:12.018Z,16.41
2016-11-24T11:27:12.005Z,16.41
2016-11-24T11:28:11.992Z,16.79
2016-11-24T11:29:11.978Z,17.46
2016-11-24T11:30:11.968Z,16.41
2016-11-24T11:31:11.956Z,16.03
2016-11-24T11:32:11.940Z,14.89
2016-11-24T11:33:12.244Z,15.18
2016-11-24T11:34:11.918Z,14.32
2016-11-24T11:35:11.906Z,14.51
2016-11-24T11:36:11.894Z,16.22
2016-11-24T11:37:11.881Z,16.41
2016-11-24T11:38:12.182Z,16.6
2016-11-24T11:39:11.858Z,18.31
2016-11-24T11:40:11.845Z,18.31
2016-11-24T11:41:11.834Z,17.74
2016-11-24T11:42:11.823Z,18.22
2016-11-24T11:43:11.807Z,17.17
2016-11-24T11:44:11.796Z,16.32
2016-11-24T11:45:11.782Z,16.32
2016-11-24T11:46:11.773Z,17.36
2016-11-24T11:47:11.760Z,17.08
2016-11-24T11:48:11.745Z,17.08
2016-11-24T11:49:11.736Z,16.32
2016-11-24T11:50:11.722Z,16.41
2016-11-24T11:51:11.713Z,16.79
2016-11-24T11:52:11.696Z,19.07
2016-11-24T11:53:11.687Z,19.92
2016-11-24T11:54:11.675Z,19.54
2016-11-24T11:55:11.661Z,19.92
2016-11-24T11:56:11.651Z,19.83
2016-11-24T11:57:11.637Z,19.07
2016-11-24T11:58:11.940Z,19.35
2016-11-24T11:59:11.615Z,19.73
2016-11-24T12:00:11.603Z,21.35
2016-11-24T12:01:11.589Z,20.4
2016-11-24T12:02:11.578Z,20.68
2016-11-24T12:03:11.583Z,19.17
2016-11-24T12:04:11.558Z,17.55
2016-11-24T12:05:11.541Z,18.22
2016-11-24T12:06:11.531Z,18.88
2016-11-24T12:07:11.515Z,19.92
2016-11-24T12:08:11.503Z,19.73
2016-11-24T12:09:11.494Z,17.65
2016-11-24T12:10:11.478Z,16.98
2016-11-24T12:11:11.467Z,16.32
2016-11-24T12:12:11.455Z,16.22
2016-11-24T12:13:11.446Z,16.41
2016-11-24T12:14:11.433Z,16.32
2016-11-24T12:15:11.419Z,16.41
2016-11-24T12:16:11.408Z,15.75
2016-11-24T12:17:11.398Z,15.47
2016-11-24T12:18:11.387Z,15.37
2016-11-24T12:19:11.371Z,15.75
2016-11-24T12:20:11.359Z,16.32
2016-11-24T12:21:11.347Z,16.98
2016-11-24T12:22:11.339Z,17.17
2016-11-24T12:23:11.326Z,16.79
2016-11-24T12:24:11.311Z,16.51
2016-11-24T12:25:11.321Z,17.93
2016-11-24T12:26:11.286Z,18.02
2016-11-24T12:27:11.275Z,16.89
2016-11-24T12:28:11.264Z,17.27
2016-11-24T12:29:11.254Z,17.08
2016-11-24T12:30:11.240Z,17.08
2016-11-24T12:31:11.228Z,15.66
2016-11-24T12:32:11.217Z,14.61
2016-11-24T12:33:11.208Z,14.7
2016-11-24T12:34:11.192Z,14.14
2016-11-24T12:35:11.179Z,13.47
2016-11-24T12:36:11.192Z,13.09
2016-11-24T12:37:11.157Z,13.09
2016-11-24T12:38:11.145Z,13.95
2016-11-24T12:39:11.131Z,13.47
2016-11-24T12:40:11.129Z,12.43
2016-11-24T12:41:11.108Z,12.34
2016-11-24T12:42:11.097Z,12.52
2016-11-24T12:43:11.083Z,12.43
2016-11-24T12:44:11.072Z,13.67
2016-11-24T12:45:11.060Z,15.47
2016-11-24T12:46:11.052Z,17.27
2016-11-24T12:47:11.038Z,17.75
2016-11-24T12:48:11.028Z,16.79
2016-11-24T12:49:11.013Z,15.28
2016-11-24T12:50:10.999Z,15.28
2016-11-24T12:51:10.990Z,14.05
2016-11-24T12:52:10.979Z,12.62
2016-11-24T12:53:10.967Z,13.48
2016-11-24T12:54:10.949Z,13.39
2016-11-24T12:55:10.943Z,14.05
2016-11-24T12:56:10.925Z,14.33
2016-11-24T12:57:10.917Z,14.33
2016-11-24T12:58:10.905Z,13.39
2016-11-24T12:59:10.893Z,13.67